Time;durP1;ratioP1;P1;durP2;ratioP2;P2;SDS_P1;SDS_P2;PMS_P1;PMS_P2;Temp;Humidity;BMP_temperature;BMP_pressure;BME280_temperature;BME280_humidity;BME280_pressure;Samples;Min_cycle;Max_cycle;Signal;HPM_P1;HPM_P2
2021/05/02 00:00:59;;;;;;;8.23;6.30;;;;;;;;;;5097600;28;20350;-68
2021/05/02 00:03:27;;;;;;;7.17;6.33;;;;;;;;;;5097909;28;20205;-68
2021/05/02 00:05:54;;;;;;;7.70;6.90;;;;;;;;;;5097322;28;20218;-68
2021/05/02 00:08:21;;;;;;;7.20;6.50;;;;;;;;;;5097861;28;20312;-68
2021/05/02 00:10:48;;;;;;;7.10;6.03;;;;;;;;;;5097800;28;20215;-68
2021/05/02 00:13:15;;;;;;;6.70;6.00;;;;;;;;;;5097906;28;20289;-68
2021/05/02 00:15:42;;;;;;;7.10;6.40;;;;;;;;;;5097445;28;20269;-68
2021/05/02 00:18:10;;;;;;;6.90;6.23;;;;;;;;;;5097697;28;20663;-68
2021/05/02 00:20:38;;;;;;;6.90;6.13;;;;;;;;;;5097673;28;20579;-68
2021/05/02 00:23:05;;;;;;;7.73;6.83;;;;;;;;;;5097664;28;20237;-68
2021/05/02 00:25:33;;;;;;;6.70;6.00;;;;;;;;;;5097830;28;20285;-68
2021/05/02 00:28:00;;;;;;;7.23;5.97;;;;;;;;;;5097726;28;20211;-68
2021/05/02 00:30:27;;;;;;;5.80;5.00;;;;;;;;;;5097492;28;20215;-68
2021/05/02 00:32:55;;;;;;;6.43;5.83;;;;;;;;;;5097622;28;20293;-68
2021/05/02 00:35:23;;;;;;;6.97;5.57;;;;;;;;;;5097532;28;20304;-68
2021/05/02 00:37:51;;;;;;;5.63;5.13;;;;;;;;;;5097554;28;20237;-68
2021/05/02 00:40:19;;;;;;;6.33;5.70;;;;;;;;;;5097490;28;20245;-68
2021/05/02 00:42:48;;;;;;;5.70;5.20;;;;;;;;;;5097634;28;20229;-68
2021/05/02 00:45:19;;;;;;;6.63;5.07;;;;;;;;;;5097076;28;20261;-68
2021/05/02 00:47:49;;;;;;;5.97;5.37;;;;;;;;;;5097416;28;20291;-68
2021/05/02 00:50:20;;;;;;;5.07;4.57;;;;;;;;;;5097433;28;20248;-68
2021/05/02 00:52:58;;;;;;;6.23;4.90;;;;;;;;;;5097724;28;20286;-68
2021/05/02 00:55:27;;;;;;;7.07;5.47;;;;;;;;;;5097482;28;20244;-68
2021/05/02 00:57:57;;;;;;;5.40;4.73;;;;;;;;;;5097262;28;20288;-68
2021/05/02 01:00:26;;;;;;;5.43;4.93;;;;;;;;;;5097619;28;20236;-68
2021/05/02 01:02:56;;;;;;;6.00;4.70;;;;;;;;;;5097527;28;20237;-68
2021/05/02 01:05:23;;;;;;;5.23;4.73;;;;;;;;;;5097440;28;20225;-68
2021/05/02 01:07:51;;;;;;;5.60;4.80;;;;;;;;;;5097189;28;20293;-68
2021/05/02 01:10:19;;;;;;;7.50;5.13;;;;;;;;;;5097213;28;20297;-68
2021/05/02 01:12:47;;;;;;;6.10;5.20;;;;;;;;;;5097066;28;20294;-68
2021/05/02 01:15:19;;;;;;;6.07;5.40;;;;;;;;;;5097034;28;20228;-68
2021/05/02 01:17:49;;;;;;;6.00;5.20;;;;;;;;;;5097454;28;20237;-68
2021/05/02 01:20:16;;;;;;;6.70;5.27;;;;;;;;;;5101084;28;20213;-68
2021/05/02 01:22:44;;;;;;;6.03;4.90;;;;;;;;;;5100999;28;20236;-68
2021/05/02 01:25:13;;;;;;;6.50;4.93;;;;;;;;;;5100859;28;20771;-68
2021/05/02 01:27:40;;;;;;;5.30;4.80;;;;;;;;;;5100503;28;20339;-68
2021/05/02 01:30:09;;;;;;;6.30;5.23;;;;;;;;;;5100275;28;20672;-68
2021/05/02 01:32:36;;;;;;;6.97;4.90;;;;;;;;;;5100829;28;20205;-68
2021/05/02 01:35:04;;;;;;;4.57;4.17;;;;;;;;;;5100321;28;20218;-68
2021/05/02 01:37:31;;;;;;;7.23;5.30;;;;;;;;;;5100736;28;20244;-68
2021/05/02 01:39:59;;;;;;;5.47;4.90;;;;;;;;;;5100508;28;20205;-68
2021/05/02 01:42:27;;;;;;;6.10;5.60;;;;;;;;;;5100669;28;20205;-68
2021/05/02 01:44:54;;;;;;;5.67;5.17;;;;;;;;;;5099965;28;20304;-68
2021/05/02 01:47:21;;;;;;;5.67;5.07;;;;;;;;;;5100193;28;20724;-68
2021/05/02 01:49:49;;;;;;;6.40;5.63;;;;;;;;;;5100346;28;20240;-68
2021/05/02 01:52:17;;;;;;;5.60;5.10;;;;;;;;;;5100390;28;20269;-68
2021/05/02 01:54:45;;;;;;;5.63;4.63;;;;;;;;;;5100201;28;20289;-68
2021/05/02 01:57:16;;;;;;;6.83;5.33;;;;;;;;;;5100172;28;20289;-68
2021/05/02 01:59:46;;;;;;;7.30;5.40;;;;;;;;;;5099954;28;20220;-68
2021/05/02 02:02:15;;;;;;;5.70;5.17;;;;;;;;;;5100282;28;20733;-68
2021/05/02 02:04:44;;;;;;;6.00;5.17;;;;;;;;;;5099799;28;20294;-68
2021/05/02 02:07:12;;;;;;;5.57;5.00;;;;;;;;;;5100036;28;20708;-68
2021/05/02 02:09:40;;;;;;;5.77;5.20;;;;;;;;;;5099733;28;20665;-68
2021/05/02 02:12:08;;;;;;;5.63;5.00;;;;;;;;;;5099684;28;20724;-68
2021/05/02 02:14:36;;;;;;;5.73;5.00;;;;;;;;;;5099345;28;20256;-70
2021/05/02 02:17:04;;;;;;;6.87;5.50;;;;;;;;;;5099720;28;20312;-68
2021/05/02 02:19:32;;;;;;;7.30;5.30;;;;;;;;;;5099540;28;20250;-68
2021/05/02 02:21:59;;;;;;;7.07;5.73;;;;;;;;;;5099854;28;20244;-68
2021/05/02 02:24:33;;;;;;;5.60;5.10;;;;;;;;;;5099650;28;20222;-68
2021/05/02 02:27:02;;;;;;;5.53;5.03;;;;;;;;;;5099521;28;20704;-68
2021/05/02 02:29:30;;;;;;;5.73;4.87;;;;;;;;;;5098775;28;20611;-68
2021/05/02 02:32:00;;;;;;;6.20;5.30;;;;;;;;;;5099578;28;20201;-68
2021/05/02 02:34:29;;;;;;;5.67;5.17;;;;;;;;;;5099446;28;20221;-68
2021/05/02 02:36:56;;;;;;;7.30;5.27;;;;;;;;;;5099204;28;20311;-68
2021/05/02 02:39:23;;;;;;;7.20;5.40;;;;;;;;;;5099289;28;20540;-68
2021/05/02 02:41:51;;;;;;;5.83;5.23;;;;;;;;;;5099031;28;20255;-68
2021/05/02 02:44:20;;;;;;;8.83;5.40;;;;;;;;;;5099174;28;20755;-68
2021/05/02 02:46:52;;;;;;;7.50;5.40;;;;;;;;;;5098925;28;20263;-68
2021/05/02 02:49:21;;;;;;;5.67;4.80;;;;;;;;;;5099078;28;20213;-68
2021/05/02 02:51:50;;;;;;;5.93;5.40;;;;;;;;;;5099077;28;20703;-68
2021/05/02 02:54:18;;;;;;;5.27;4.77;;;;;;;;;;5099210;28;20240;-68
2021/05/02 02:56:47;;;;;;;6.27;5.10;;;;;;;;;;5099018;28;20256;-68
2021/05/02 02:59:19;;;;;;;4.80;4.40;;;;;;;;;;5098848;28;20286;-68
2021/05/02 03:01:47;;;;;;;5.30;4.80;;;;;;;;;;5098769;28;20240;-68
2021/05/02 03:04:16;;;;;;;5.57;4.70;;;;;;;;;;5098761;28;20209;-68
2021/05/02 03:06:43;;;;;;;7.47;6.27;;;;;;;;;;5098987;28;20197;-68
2021/05/02 03:09:11;;;;;;;6.20;5.47;;;;;;;;;;5098898;28;20243;-68
2021/05/02 03:11:39;;;;;;;5.27;4.77;;;;;;;;;;5098482;28;20205;-68
2021/05/02 03:14:06;;;;;;;6.77;5.20;;;;;;;;;;5098410;28;20668;-68
2021/05/02 03:16:35;;;;;;;6.83;4.97;;;;;;;;;;5098486;28;20221;-68
2021/05/02 03:19:06;;;;;;;6.80;5.07;;;;;;;;;;5098656;28;20216;-68
2021/05/02 03:21:38;;;;;;;5.83;5.27;;;;;;;;;;5098717;28;20209;-68
2021/05/02 03:24:06;;;;;;;6.40;5.57;;;;;;;;;;5098382;28;20707;-68
2021/05/02 03:26:35;;;;;;;6.37;5.77;;;;;;;;;;5098349;28;20233;-68
2021/05/02 03:29:03;;;;;;;5.83;5.23;;;;;;;;;;5098091;28;20243;-68
2021/05/02 03:31:32;;;;;;;5.80;5.20;;;;;;;;;;5098558;28;20293;-68
2021/05/02 03:34:01;;;;;;;7.77;5.40;;;;;;;;;;5098187;28;20210;-68
2021/05/02 03:36:30;;;;;;;8.67;5.60;;;;;;;;;;5098083;28;20260;-68
2021/05/02 03:38:59;;;;;;;6.20;5.60;;;;;;;;;;5098368;28;20244;-68
2021/05/02 03:41:26;;;;;;;6.57;5.97;;;;;;;;;;5097689;28;20291;-68
2021/05/02 03:43:54;;;;;;;5.87;5.23;;;;;;;;;;5097857;28;20654;-68
2021/05/02 03:46:24;;;;;;;6.90;6.20;;;;;;;;;;5098010;28;20252;-68
2021/05/02 03:48:55;;;;;;;6.13;5.40;;;;;;;;;;5098312;28;20244;-68
2021/05/02 03:51:23;;;;;;;8.37;5.80;;;;;;;;;;5097952;28;20644;-68
2021/05/02 03:53:50;;;;;;;6.33;5.53;;;;;;;;;;5098226;28;20263;-68
2021/05/02 03:56:44;;;;;;;5.97;5.37;;;;;;;;;;5097885;28;20236;-68
2021/05/02 03:59:13;;;;;;;5.73;5.00;;;;;;;;;;5050600;28;20240;-68
2021/05/02 04:01:48;;;;;;;5.80;5.30;;;;;;;;;;5097910;28;20577;-68
2021/05/02 04:04:17;;;;;;;7.70;5.90;;;;;;;;;;5098126;28;20272;-68
2021/05/02 04:06:44;;;;;;;5.63;5.13;;;;;;;;;;5098021;28;20285;-68
2021/05/02 04:09:12;;;;;;;6.47;5.63;;;;;;;;;;5098084;28;20288;-68
2021/05/02 04:11:39;;;;;;;6.17;5.67;;;;;;;;;;5097671;28;20680;-68
2021/05/02 04:14:07;;;;;;;6.67;5.03;;;;;;;;;;5097367;28;20665;-68
2021/05/02 04:16:35;;;;;;;7.53;6.73;;;;;;;;;;5097900;28;20309;-68
2021/05/02 04:19:02;;;;;;;7.70;6.53;;;;;;;;;;5097659;28;20205;-68
2021/05/02 04:21:29;;;;;;;6.43;5.73;;;;;;;;;;5097997;28;20288;-68
2021/05/02 04:23:56;;;;;;;7.60;5.93;;;;;;;;;;5097899;28;20237;-68
2021/05/02 04:26:23;;;;;;;6.70;5.97;;;;;;;;;;5097741;28;20281;-68
2021/05/02 04:28:50;;;;;;;7.67;5.80;;;;;;;;;;5097643;28;20232;-68
2021/05/02 04:31:17;;;;;;;8.97;6.00;;;;;;;;;;5097822;28;20206;-68
2021/05/02 04:33:45;;;;;;;6.67;5.97;;;;;;;;;;5097540;28;20241;-68
2021/05/02 04:36:12;;;;;;;6.97;5.83;;;;;;;;;;5097439;28;20316;-68
2021/05/02 04:38:39;;;;;;;7.47;6.77;;;;;;;;;;5097493;28;20775;-68
2021/05/02 04:41:06;;;;;;;7.53;6.67;;;;;;;;;;5097783;28;20782;-68
2021/05/02 04:43:33;;;;;;;8.53;6.50;;;;;;;;;;5097597;28;20233;-68
2021/05/02 04:46:00;;;;;;;6.80;6.17;;;;;;;;;;5097149;28;20265;-68
2021/05/02 04:48:27;;;;;;;6.57;5.87;;;;;;;;;;5097705;28;20233;-68
2021/05/02 04:50:55;;;;;;;8.60;5.80;;;;;;;;;;5097728;28;20241;-68
2021/05/02 04:53:22;;;;;;;7.90;7.00;;;;;;;;;;5100242;28;20280;-68
2021/05/02 04:55:49;;;;;;;8.73;6.60;;;;;;;;;;5101042;28;20309;-68
2021/05/02 04:58:16;;;;;;;7.97;7.17;;;;;;;;;;5101072;28;20227;-68
2021/05/02 05:00:43;;;;;;;9.53;6.67;;;;;;;;;;5100872;28;20208;-68
2021/05/02 05:03:10;;;;;;;7.90;6.77;;;;;;;;;;5101148;28;20747;-68
2021/05/02 05:05:37;;;;;;;7.80;6.47;;;;;;;;;;5101081;28;20665;-68
2021/05/02 05:08:06;;;;;;;7.60;6.77;;;;;;;;;;5101280;28;20260;-68
2021/05/02 05:10:33;;;;;;;8.10;6.00;;;;;;;;;;5101231;28;20244;-68
2021/05/02 05:13:00;;;;;;;7.90;6.17;;;;;;;;;;5100968;28;20231;-68
2021/05/02 05:15:27;;;;;;;7.90;6.47;;;;;;;;;;5100771;28;20262;-68
2021/05/02 05:17:54;;;;;;;8.90;7.40;;;;;;;;;;5100903;28;20288;-68
2021/05/02 05:20:21;;;;;;;8.53;6.67;;;;;;;;;;5101097;28;20293;-68
2021/05/02 05:22:48;;;;;;;7.63;6.50;;;;;;;;;;5100683;28;20639;-68
2021/05/02 05:25:16;;;;;;;9.00;6.63;;;;;;;;;;5100598;28;20231;-68
2021/05/02 05:27:43;;;;;;;7.83;6.07;;;;;;;;;;5100799;28;20229;-68
2021/05/02 05:30:11;;;;;;;7.70;7.00;;;;;;;;;;5100572;28;20243;-68
2021/05/02 05:32:38;;;;;;;8.23;7.17;;;;;;;;;;5100809;28;20269;-68
2021/05/02 05:35:06;;;;;;;7.50;6.57;;;;;;;;;;5100412;28;20275;-68
2021/05/02 05:37:33;;;;;;;7.77;7.00;;;;;;;;;;5087323;28;20312;-68
2021/05/02 05:40:00;;;;;;;7.27;6.23;;;;;;;;;;5100732;28;20212;-68
2021/05/02 05:42:28;;;;;;;7.40;6.53;;;;;;;;;;5100628;28;20705;-68
2021/05/02 05:44:55;;;;;;;7.40;6.63;;;;;;;;;;5100228;28;20236;-68
2021/05/02 05:47:22;;;;;;;6.97;6.33;;;;;;;;;;5100266;28;20240;-68
2021/05/02 05:49:49;;;;;;;7.27;6.40;;;;;;;;;;5100479;28;20255;-68
2021/05/02 05:52:16;;;;;;;9.37;6.70;;;;;;;;;;5096651;28;20288;-68
2021/05/02 05:54:43;;;;;;;7.97;7.03;;;;;;;;;;5100373;28;20728;-68
2021/05/02 05:57:10;;;;;;;9.53;7.07;;;;;;;;;;5100126;28;20221;-68
2021/05/02 05:59:39;;;;;;;8.47;7.27;;;;;;;;;;5094227;28;20201;-68
2021/05/02 06:02:06;;;;;;;8.63;7.00;;;;;;;;;;5100209;28;20194;-68
2021/05/02 06:04:33;;;;;;;10.03;6.90;;;;;;;;;;5099331;28;20274;-68
2021/05/02 06:07:01;;;;;;;7.40;6.60;;;;;;;;;;5100039;28;20546;-68
2021/05/02 06:09:28;;;;;;;8.30;6.43;;;;;;;;;;5099870;28;20240;-68
2021/05/02 06:11:55;;;;;;;8.73;7.10;;;;;;;;;;5099771;28;20265;-68
2021/05/02 06:14:22;;;;;;;9.57;7.70;;;;;;;;;;5099620;28;20222;-68
2021/05/02 06:16:50;;;;;;;7.87;7.00;;;;;;;;;;5099564;28;20304;-68
2021/05/02 06:19:17;;;;;;;9.27;7.50;;;;;;;;;;5099830;28;20244;-68
2021/05/02 06:21:44;;;;;;;8.10;7.27;;;;;;;;;;5099901;28;20288;-68
2021/05/02 06:24:11;;;;;;;7.47;6.77;;;;;;;;;;5099752;28;20284;-69
2021/05/02 06:26:38;;;;;;;10.77;6.80;;;;;;;;;;5099381;28;20205;-68
2021/05/02 06:29:05;;;;;;;11.37;8.27;;;;;;;;;;5099426;28;20255;-68
2021/05/02 06:31:32;;;;;;;8.23;6.97;;;;;;;;;;5099728;28;20212;-68
2021/05/02 06:34:00;;;;;;;9.30;7.43;;;;;;;;;;5099468;28;20210;-68
2021/05/02 06:36:28;;;;;;;10.30;7.63;;;;;;;;;;5099435;28;20285;-69
2021/05/02 06:38:55;;;;;;;7.87;7.07;;;;;;;;;;5099003;28;20732;-67
2021/05/02 06:41:22;;;;;;;9.83;7.20;;;;;;;;;;5099452;28;20235;-67
2021/05/02 06:43:49;;;;;;;11.70;8.17;;;;;;;;;;5098976;28;20208;-68
2021/05/02 06:46:27;;;;;;;10.53;7.80;;;;;;;;;;5098976;28;20265;-68
2021/05/02 06:48:55;;;;;;;7.93;7.13;;;;;;;;;;5085476;28;20760;-67
2021/05/02 06:51:23;;;;;;;8.47;7.20;;;;;;;;;;5097375;28;21004;-67
2021/05/02 06:53:51;;;;;;;8.17;7.37;;;;;;;;;;5097235;28;20223;-67
2021/05/02 06:56:18;;;;;;;8.70;7.57;;;;;;;;;;5097462;28;20308;-67
2021/05/02 06:58:46;;;;;;;9.47;7.57;;;;;;;;;;5097301;28;20202;-67
2021/05/02 07:01:13;;;;;;;8.43;7.63;;;;;;;;;;5094928;28;20285;-67
2021/05/02 07:03:40;;;;;;;8.47;7.20;;;;;;;;;;5097427;28;20607;-67
2021/05/02 07:06:26;;;;;;;8.60;7.30;;;;;;;;;;5095904;28;20221;-67
2021/05/02 07:08:53;;;;;;;10.77;7.97;;;;;;;;;;5097244;28;20222;-67
2021/05/02 07:11:21;;;;;;;8.17;7.37;;;;;;;;;;5097015;28;20197;-67
2021/05/02 07:13:48;;;;;;;8.53;7.20;;;;;;;;;;5096989;28;20209;-67
2021/05/02 07:16:17;;;;;;;8.93;7.47;;;;;;;;;;5096258;28;20313;-67
2021/05/02 07:18:45;;;;;;;9.10;6.63;;;;;;;;;;5098020;28;20233;-67
2021/05/02 07:21:14;;;;;;;10.00;6.80;;;;;;;;;;5097895;28;20285;-67
2021/05/02 07:23:44;;;;;;;7.47;6.67;;;;;;;;;;5097423;28;20645;-67
2021/05/02 07:26:11;;;;;;;7.43;6.70;;;;;;;;;;5097577;28;20247;-67
2021/05/02 07:28:38;;;;;;;7.37;6.67;;;;;;;;;;5098130;28;20204;-67
2021/05/02 07:31:05;;;;;;;8.17;7.37;;;;;;;;;;5096580;28;20197;-67
2021/05/02 07:33:32;;;;;;;9.67;7.83;;;;;;;;;;5097391;28;20858;-67
2021/05/02 07:35:59;;;;;;;7.83;6.50;;;;;;;;;;5097709;28;20221;-67
2021/05/02 07:38:28;;;;;;;7.80;6.33;;;;;;;;;;5097314;28;20724;-67
2021/05/02 07:40:57;;;;;;;10.60;6.40;;;;;;;;;;5097733;28;20202;-67
2021/05/02 07:43:24;;;;;;;8.30;5.93;;;;;;;;;;5097459;28;20227;-67
2021/05/02 07:45:52;;;;;;;6.37;5.77;;;;;;;;;;5097612;28;20316;-67
2021/05/02 07:48:19;;;;;;;8.03;6.70;;;;;;;;;;5097338;28;20308;-67
2021/05/02 07:50:47;;;;;;;6.23;5.63;;;;;;;;;;5097095;28;20209;-67
2021/05/02 07:53:14;;;;;;;6.03;5.43;;;;;;;;;;5094782;28;20229;-67
2021/05/02 07:55:41;;;;;;;5.47;4.97;;;;;;;;;;5097645;28;20236;-67
2021/05/02 07:58:09;;;;;;;6.77;5.97;;;;;;;;;;5097935;28;20276;-68
2021/05/02 08:00:36;;;;;;;6.07;5.43;;;;;;;;;;5097823;28;20236;-67
2021/05/02 08:03:03;;;;;;;5.87;5.37;;;;;;;;;;5105160;28;20193;-67
2021/05/02 08:05:31;;;;;;;6.50;5.90;;;;;;;;;;5103086;28;20278;-67
2021/05/02 08:07:58;;;;;;;7.33;5.73;;;;;;;;;;5106720;28;20272;-67
2021/05/02 08:10:25;;;;;;;7.70;5.97;;;;;;;;;;5108329;28;20197;-67
2021/05/02 08:12:52;;;;;;;6.63;5.60;;;;;;;;;;5104682;28;20225;-67
2021/05/02 08:15:20;;;;;;;7.83;6.27;;;;;;;;;;5105119;28;20223;-67
2021/05/02 08:17:48;;;;;;;7.17;5.50;;;;;;;;;;5104733;28;20705;-68
2021/05/02 08:20:15;;;;;;;6.77;5.80;;;;;;;;;;5103384;28;20197;-67
2021/05/02 08:22:42;;;;;;;6.73;5.63;;;;;;;;;;5107138;28;20280;-67
2021/05/02 08:25:10;;;;;;;6.53;5.93;;;;;;;;;;5098862;28;20313;-67
2021/05/02 08:27:37;;;;;;;6.60;6.00;;;;;;;;;;5096963;28;20215;-68
2021/05/02 08:30:04;;;;;;;13.60;6.27;;;;;;;;;;5100545;28;20327;-68
2021/05/02 08:32:32;;;;;;;8.30;6.67;;;;;;;;;;5105789;28;20204;-66
2021/05/02 08:35:01;;;;;;;7.20;6.33;;;;;;;;;;5110932;28;20249;-66
2021/05/02 08:37:28;;;;;;;7.63;5.93;;;;;;;;;;5095183;28;20283;-67
2021/05/02 08:39:55;;;;;;;6.27;5.67;;;;;;;;;;5113566;28;20271;-67
2021/05/02 08:42:22;;;;;;;6.50;5.90;;;;;;;;;;5101662;28;20736;-66
2021/05/02 08:44:50;;;;;;;7.33;6.63;;;;;;;;;;5099721;28;20316;-66
2021/05/02 08:47:18;;;;;;;7.30;6.47;;;;;;;;;;5100138;28;20233;-67
2021/05/02 08:49:46;;;;;;;8.33;6.07;;;;;;;;;;5100619;28;20212;-67
2021/05/02 08:52:13;;;;;;;7.53;6.30;;;;;;;;;;5100567;28;20202;-66
2021/05/02 08:54:40;;;;;;;6.87;5.53;;;;;;;;;;5100275;28;20244;-67
2021/05/02 08:57:07;;;;;;;5.70;4.90;;;;;;;;;;5100058;28;20590;-66
2021/05/02 08:59:34;;;;;;;7.90;6.03;;;;;;;;;;5100788;28;20288;-67
2021/05/02 09:02:02;;;;;;;7.70;6.17;;;;;;;;;;5101372;28;20209;-66
2021/05/02 09:04:29;;;;;;;6.27;5.67;;;;;;;;;;5101552;28;20222;-66
2021/05/02 09:06:57;;;;;;;6.27;5.67;;;;;;;;;;5110544;28;20228;-67
2021/05/02 09:09:24;;;;;;;7.67;5.50;;;;;;;;;;5100857;28;20269;-67
2021/05/02 09:11:54;;;;;;;7.57;5.83;;;;;;;;;;5094839;28;20217;-67
2021/05/02 09:14:29;;;;;;;7.00;6.30;;;;;;;;;;5096246;28;20265;-67
2021/05/02 09:16:57;;;;;;;6.67;6.00;;;;;;;;;;5100852;28;20257;-67
2021/05/02 09:19:25;;;;;;;6.13;5.53;;;;;;;;;;5101069;28;20240;-67
2021/05/02 09:21:52;;;;;;;6.77;6.13;;;;;;;;;;5101004;28;20720;-67
2021/05/02 09:24:24;;;;;;;6.47;5.50;;;;;;;;;;5100939;28;20247;-67
2021/05/02 09:27:01;;;;;;;7.10;6.40;;;;;;;;;;5100634;28;20267;-67
2021/05/02 09:29:29;;;;;;;6.30;5.70;;;;;;;;;;5100267;28;20233;-67
2021/05/02 09:31:56;;;;;;;7.13;6.30;;;;;;;;;;5100635;28;20241;-67
2021/05/02 09:34:23;;;;;;;8.57;6.23;;;;;;;;;;5100655;28;20316;-67
2021/05/02 09:36:51;;;;;;;7.60;6.33;;;;;;;;;;5100625;28;20288;-67
2021/05/02 09:39:37;;;;;;;7.43;6.03;;;;;;;;;;5099758;28;20730;-67
2021/05/02 09:42:06;;;;;;;8.53;6.77;;;;;;;;;;5100272;28;20252;-67
2021/05/02 09:44:40;;;;;;;8.07;6.87;;;;;;;;;;5100025;28;20735;-67
2021/05/02 09:47:20;;;;;;;9.10;5.70;;;;;;;;;;5100124;28;20261;-67
2021/05/02 09:50:02;;;;;;;6.93;6.23;;;;;;;;;;5100417;28;20205;-67
2021/05/02 09:52:39;;;;;;;8.43;6.43;;;;;;;;;;5100478;28;20288;-67
2021/05/02 09:55:17;;;;;;;7.57;6.07;;;;;;;;;;5100029;28;20639;-67
2021/05/02 09:57:51;;;;;;;6.77;6.10;;;;;;;;;;5100082;28;20225;-67
2021/05/02 10:00:25;;;;;;;9.10;7.23;;;;;;;;;;5100043;28;20288;-67
2021/05/02 10:02:53;;;;;;;9.73;6.73;;;;;;;;;;5099963;28;20675;-67
2021/05/02 10:05:21;;;;;;;8.00;6.83;;;;;;;;;;5099914;28;20776;-67
2021/05/02 10:07:48;;;;;;;10.30;6.90;;;;;;;;;;5100029;28;20281;-67
2021/05/02 10:10:15;;;;;;;8.17;6.50;;;;;;;;;;5099838;28;20237;-67
2021/05/02 10:12:42;;;;;;;7.70;6.90;;;;;;;;;;5099860;28;20289;-67
2021/05/02 10:15:10;;;;;;;7.10;6.37;;;;;;;;;;5099621;28;20289;-67
2021/05/02 10:17:37;;;;;;;7.40;6.40;;;;;;;;;;5099519;28;20739;-67
2021/05/02 10:20:05;;;;;;;7.07;5.97;;;;;;;;;;5099636;28;20718;-67
2021/05/02 10:22:32;;;;;;;8.03;6.70;;;;;;;;;;5099799;28;20213;-67
2021/05/02 10:25:05;;;;;;;6.43;5.83;;;;;;;;;;5099731;28;20232;-67
2021/05/02 10:27:32;;;;;;;6.37;5.67;;;;;;;;;;5099360;28;20293;-67
2021/05/02 10:29:59;;;;;;;8.20;6.13;;;;;;;;;;5099384;28;20294;-67
2021/05/02 10:32:33;;;;;;;7.37;5.90;;;;;;;;;;5099407;28;20668;-67
2021/05/02 10:35:06;;;;;;;7.10;5.70;;;;;;;;;;5099296;28;20554;-67
2021/05/02 10:37:35;;;;;;;6.70;4.27;;;;;;;;;;5086503;28;20262;-67
2021/05/02 10:40:06;;;;;;;5.17;3.43;;;;;;;;;;5099397;28;20210;-67
2021/05/02 10:42:37;;;;;;;4.27;3.07;;;;;;;;;;5099080;28;20732;-67
2021/05/02 10:45:33;;;;;;;3.23;2.80;;;;;;;;;;5098685;28;20239;-67
2021/05/02 10:48:01;;;;;;;3.20;2.60;;;;;;;;;;5046164;28;20320;-67
2021/05/02 10:50:29;;;;;;;3.00;2.70;;;;;;;;;;5099266;28;20287;-67
2021/05/02 10:53:03;;;;;;;7.03;3.00;;;;;;;;;;5099301;28;20205;-67
2021/05/02 10:55:44;;;;;;;4.57;3.40;;;;;;;;;;5099137;28;20235;-67
2021/05/02 10:58:19;;;;;;;7.20;4.30;;;;;;;;;;5096416;28;20259;-67
2021/05/02 11:00:52;;;;;;;4.40;2.77;;;;;;;;;;5098955;28;20213;-67
2021/05/02 11:03:37;;;;;;;4.30;3.80;;;;;;;;;;5099027;28;20232;-67
2021/05/02 11:06:05;;;;;;;5.90;4.13;;;;;;;;;;5085487;28;20278;-67
2021/05/02 11:08:45;;;;;;;8.10;4.93;;;;;;;;;;5098761;28;20204;-67
2021/05/02 11:11:27;;;;;;;5.70;5.03;;;;;;;;;;5098422;28;20227;-67
2021/05/02 11:14:26;;;;;;;5.60;5.10;;;;;;;;;;5098117;28;20284;-67
2021/05/02 11:17:07;;;;;;;5.13;4.30;;;;;;;;;;5098459;28;20572;-67
2021/05/02 11:19:41;;;;;;;5.87;4.20;;;;;;;;;;5098860;28;20205;-67
2021/05/02 11:22:11;;;;;;;5.40;4.20;;;;;;;;;;5098368;28;20632;-67
2021/05/02 11:25:11;;;;;;;7.37;5.63;;;;;;;;;;5098676;28;20229;-67
2021/05/02 11:27:48;;;;;;;5.50;4.73;;;;;;;;;;5098269;28;20206;-67
2021/05/02 11:30:17;;;;;;;6.17;5.57;;;;;;;;;;5098214;28;20206;-67
2021/05/02 11:32:44;;;;;;;6.10;4.67;;;;;;;;;;5098572;28;20212;-67
2021/05/02 11:35:12;;;;;;;5.83;5.23;;;;;;;;;;5098360;28;20225;-67
2021/05/02 11:37:42;;;;;;;5.17;4.70;;;;;;;;;;5098164;28;20767;-67
2021/05/02 11:40:27;;;;;;;4.80;4.40;;;;;;;;;;5098436;28;20288;-67
2021/05/02 11:42:55;;;;;;;9.67;5.07;;;;;;;;;;5098001;28;20213;-67
2021/05/02 11:45:23;;;;;;;4.77;4.20;;;;;;;;;;5097656;28;20307;-67
2021/05/02 11:47:50;;;;;;;7.20;4.77;;;;;;;;;;5097934;28;20337;-67
2021/05/02 11:50:18;;;;;;;4.70;4.23;;;;;;;;;;5098272;28;20259;-67
2021/05/02 11:52:46;;;;;;;6.00;4.60;;;;;;;;;;5098314;28;20232;-68
2021/05/02 11:55:25;;;;;;;5.77;4.47;;;;;;;;;;5098155;28;20293;-67
2021/05/02 11:57:52;;;;;;;8.40;4.43;;;;;;;;;;5097698;28;20760;-67
2021/05/02 12:00:32;;;;;;;3.93;3.50;;;;;;;;;;5098152;28;20268;-67
2021/05/02 12:02:59;;;;;;;4.77;4.27;;;;;;;;;;5097666;28;20292;-67
2021/05/02 12:05:26;;;;;;;6.27;4.60;;;;;;;;;;5098081;28;20304;-67
2021/05/02 12:08:07;;;;;;;4.07;3.67;;;;;;;;;;5097718;28;20586;-67
2021/05/02 12:10:34;;;;;;;4.80;4.07;;;;;;;;;;5098072;28;20206;-67
2021/05/02 12:13:01;;;;;;;4.70;3.93;;;;;;;;;;5097707;28;20250;-67
2021/05/02 12:15:28;;;;;;;6.77;3.60;;;;;;;;;;5097379;28;20308;-67
2021/05/02 12:17:55;;;;;;;6.37;3.83;;;;;;;;;;5097763;28;20312;-67
2021/05/02 12:20:23;;;;;;;4.90;3.80;;;;;;;;;;5097740;28;20236;-67
2021/05/02 12:22:50;;;;;;;4.07;3.57;;;;;;;;;;5097564;28;20209;-68
2021/05/02 12:25:18;;;;;;;3.80;3.10;;;;;;;;;;5097613;28;20684;-67
2021/05/02 12:27:55;;;;;;;5.10;3.90;;;;;;;;;;5097699;28;20284;-67
2021/05/02 12:30:22;;;;;;;5.67;4.70;;;;;;;;;;5097331;28;20331;-67
2021/05/02 12:32:49;;;;;;;4.47;4.07;;;;;;;;;;5097614;28;20288;-67
2021/05/02 12:35:16;;;;;;;6.10;4.40;;;;;;;;;;5097508;28;20257;-67
2021/05/02 12:37:43;;;;;;;3.97;3.63;;;;;;;;;;5097714;28;20221;-67
2021/05/02 12:40:12;;;;;;;5.63;4.13;;;;;;;;;;5097734;28;20212;-67
2021/05/02 12:42:40;;;;;;;5.00;4.47;;;;;;;;;;5097590;28;20289;-67
2021/05/02 12:45:08;;;;;;;5.77;3.70;;;;;;;;;;5097108;28;20658;-67
2021/05/02 12:47:39;;;;;;;3.70;3.40;;;;;;;;;;5086597;28;20238;-67
2021/05/02 12:50:07;;;;;;;6.93;3.57;;;;;;;;;;5097630;28;20216;-67
2021/05/02 12:52:35;;;;;;;3.73;3.27;;;;;;;;;;5097659;28;20237;-67
2021/05/02 12:55:18;;;;;;;3.07;2.53;;;;;;;;;;5097488;28;20232;-67
2021/05/02 12:57:49;;;;;;;3.37;2.73;;;;;;;;;;5097066;28;20236;-67
2021/05/02 13:00:19;;;;;;;5.60;3.90;;;;;;;;;;5097278;28;20237;-67
2021/05/02 13:02:47;;;;;;;2.97;2.10;;;;;;;;;;5097280;28;20288;-67
2021/05/02 13:05:16;;;;;;;4.83;2.53;;;;;;;;;;5097506;28;20265;-67
2021/05/02 13:07:45;;;;;;;3.17;2.37;;;;;;;;;;5097573;28;20205;-67
2021/05/02 13:10:27;;;;;;;2.70;1.90;;;;;;;;;;5097276;28;20233;-67
2021/05/02 13:12:56;;;;;;;3.17;2.23;;;;;;;;;;5097706;28;20697;-67
2021/05/02 13:15:24;;;;;;;2.77;2.30;;;;;;;;;;5100795;28;20227;-67
2021/05/02 13:17:57;;;;;;;2.07;1.87;;;;;;;;;;5100615;28;20657;-68
2021/05/02 13:20:25;;;;;;;2.33;2.00;;;;;;;;;;5100644;28;20205;-67
2021/05/02 13:22:52;;;;;;;2.03;1.83;;;;;;;;;;5100938;28;20210;-68
2021/05/02 13:25:19;;;;;;;1.80;1.70;;;;;;;;;;5100312;28;20320;-68
2021/05/02 13:27:46;;;;;;;2.23;1.70;;;;;;;;;;5100301;28;20281;-66
2021/05/02 13:30:15;;;;;;;1.60;1.50;;;;;;;;;;5100223;28;20209;-67
2021/05/02 13:33:04;;;;;;;2.23;1.73;;;;;;;;;;5100719;28;20288;-66
2021/05/02 13:35:32;;;;;;;2.53;2.30;;;;;;;;;;5100570;28;20261;-65
2021/05/02 13:38:00;;;;;;;2.30;2.03;;;;;;;;;;5100698;28;20271;-66
2021/05/02 13:40:27;;;;;;;8.13;3.77;;;;;;;;;;5100641;28;20240;-66
2021/05/02 13:42:55;;;;;;;2.60;2.40;;;;;;;;;;5100476;28;20241;-67
2021/05/02 13:45:23;;;;;;;1.90;1.77;;;;;;;;;;5099909;28;20255;-65
2021/05/02 13:47:51;;;;;;;2.77;2.00;;;;;;;;;;5100171;28;20264;-66
2021/05/02 13:50:18;;;;;;;4.70;1.93;;;;;;;;;;5100848;28;20233;-69
2021/05/02 13:52:45;;;;;;;5.70;2.43;;;;;;;;;;5100171;28;20741;-67
2021/05/02 13:55:13;;;;;;;3.50;3.00;;;;;;;;;;5100130;28;20284;-68
2021/05/02 13:57:41;;;;;;;2.03;1.80;;;;;;;;;;5100161;28;20236;-67
2021/05/02 14:00:11;;;;;;;2.33;1.87;;;;;;;;;;5099705;28;20241;-68
2021/05/02 14:02:39;;;;;;;2.57;1.90;;;;;;;;;;5100222;28;20209;-65
2021/05/02 14:05:06;;;;;;;3.03;1.90;;;;;;;;;;5104782;28;20260;-67
2021/05/02 14:07:33;;;;;;;1.80;1.70;;;;;;;;;;5109382;28;20281;-67
2021/05/02 14:10:00;;;;;;;3.50;2.40;;;;;;;;;;5107864;28;20232;-67
2021/05/02 14:12:27;;;;;;;3.60;1.80;;;;;;;;;;5105141;28;20224;-66
2021/05/02 14:14:54;;;;;;;1.93;1.60;;;;;;;;;;5101338;28;20749;-66
2021/05/02 14:17:24;;;;;;;1.60;1.33;;;;;;;;;;5096119;28;20270;-67
2021/05/02 14:19:52;;;;;;;1.60;1.50;;;;;;;;;;5107534;28;20288;-65
2021/05/02 14:22:19;;;;;;;2.20;1.33;;;;;;;;;;5103200;28;20863;-65
2021/05/02 14:24:46;;;;;;;1.80;1.63;;;;;;;;;;5098755;28;20304;-65
2021/05/02 14:27:13;;;;;;;3.03;1.73;;;;;;;;;;5099410;28;20572;-64
2021/05/02 14:29:40;;;;;;;2.37;1.53;;;;;;;;;;5099280;28;20212;-65
2021/05/02 14:32:11;;;;;;;1.80;1.50;;;;;;;;;;5099229;28;20645;-65
2021/05/02 14:34:39;;;;;;;1.70;1.60;;;;;;;;;;5099222;28;20396;-65
2021/05/02 14:37:07;;;;;;;2.57;1.70;;;;;;;;;;5099250;28;20296;-66
2021/05/02 14:39:34;;;;;;;1.43;1.30;;;;;;;;;;5099194;28;20312;-66
2021/05/02 14:42:03;;;;;;;3.47;1.60;;;;;;;;;;5099014;28;20213;-66
2021/05/02 14:44:30;;;;;;;2.20;2.00;;;;;;;;;;5099146;28;20222;-65
2021/05/02 14:46:57;;;;;;;2.40;1.30;;;;;;;;;;5099037;28;20325;-66
2021/05/02 14:49:24;;;;;;;1.97;1.80;;;;;;;;;;5099225;28;20209;-66
2021/05/02 14:52:08;;;;;;;3.13;1.50;;;;;;;;;;5099393;28;20209;-66
2021/05/02 14:54:36;;;;;;;1.50;1.40;;;;;;;;;;5099103;28;20251;-65